Detall de PIREP

Printer-friendly versionPDF version

[2016/07/10 10:25:00]
Flight IATA:CT3231
Pilot Number:012
Company ICAO:CAT
Aircraft Type:DC85/A
PAX:132
Aircraft Registration:PAX
Departing Airport: ELLX
Destination Airport: LEPA
Alternate Airport:LEBL
Online: VATSIM
Route:GTQ UN852 VERSO UL129 LUNIK
Flight Level:F350
No Slew and time accel
No pause
Crash detect
Detect pilot in Cockpit between each 30 and 45 minutes
10:25 Zero fuel Weight: 173380 Lbs, Fuel Weight: 39660 Lbs
10:25 VATSIM:ELLX 100950Z 19009KT 140V220 CAVOK 25/15 Q1015 NOSIG
10:25 VATSIM:LEPA 101000Z 22010KT CAVOK 31/19 Q1016 NOSIG
10:26 Parking Brakes off
10:31 Take-off
10:31 Take off Weight: 212097 Lbs
10:31 Wind: 176º @ 008 Knots Heading: 235º
10:31 POS N49º 37´ 39´´ E006º 12´ 49´´
10:31 Flaps:2 at 169 Knots
10:31 Gear Up: 172 Knots
10:31 Flaps:1 at 184 Knots
10:31 Flaps:0 at 187 Knots
10:44 TOC
10:44 Fuel Weight: 34223 Lb
10:46 Wind:251º@041 Knots Heading: 177º Ground Speed: 431 Knots Altitude 35072 ft
11:01 Wind:260º@027 Knots Heading: 183º Ground Speed: 489 Knots Altitude 35078 ft
11:16 Wind:269º@024 Knots Heading: 187º Ground Speed: 490 Knots Altitude 35052 ft
11:31 Wind:270º@026 Knots Heading: 208º Ground Speed: 479 Knots Altitude 35052 ft
11:42 TOD
11:42 Fuel Weight: 21305 Lb
11:46 Wind:269º@020 Knots Heading: 201º Ground Speed: 464 Knots Altitude 28687 ft
11:56 Flaps:1 at 233 Knots
11:59 Flaps:2 at 214 Knots
12:01 Wind:055º@001 Knots Heading: 274º Ground Speed: 246 Knots Altitude 4639 ft
12:02 Flaps:3 at 207 Knots
12:02 Gear Down: 207 Knots
12:03 Flaps:4 at 154 Knots
12:03 Flaps:5 at 142 Knots
12:09 TouchDown:Rate -233 ft/min Speed: 116 Knots
12:09 Flaps:4 at 55 Knots
12:09 Flaps:0 at 56 Knots
12:09 VATSIM:LEPA 101200Z 24014KT CAVOK 31/21 Q1015 NOSIG
12:09 Land
12:09 Wind:136º@014 Knots
12:09 Heading: 239º
12:09 Flight Duration: 01:38
12:09 Landing Weight: 191385 Lbs
12:09 POS N39º 32´ 50´´ E002º 44´ 39´´
12:10 Parking brakes on
12:10 Block to Block Duration: 01:44
12:10 Final Fuel: 17899 Lbls
12:10 Spent Fuel: 21761 Lbls
12:10 Flight Length: 676 NM
12:10 TOD Land Length: 135 NM

Exportar CSV

Powered by Drupal - Modified by Danger4k